sensor_id;sensor_type;location;lat;lon;timestamp;P1;durP1;ratioP1;P2;durP2;ratioP2
1625;SDS011;806;48.770;9.156;2023-07-02T00:02:13;0.90;;;0.50;;
1625;SDS011;806;48.770;9.156;2023-07-02T00:04:41;0.70;;;0.50;;
1625;SDS011;806;48.770;9.156;2023-07-02T00:07:08;1.13;;;0.60;;
1625;SDS011;806;48.770;9.156;2023-07-02T00:09:36;1.20;;;0.60;;
1625;SDS011;806;48.770;9.156;2023-07-02T00:12:04;1.00;;;0.60;;
1625;SDS011;806;48.770;9.156;2023-07-02T00:14:31;0.95;;;0.60;;
1625;SDS011;806;48.770;9.156;2023-07-02T00:16:58;0.90;;;0.50;;
1625;SDS011;806;48.770;9.156;2023-07-02T00:19:25;0.80;;;0.50;;
1625;SDS011;806;48.770;9.156;2023-07-02T00:21:53;1.00;;;0.50;;
1625;SDS011;806;48.770;9.156;2023-07-02T00:24:20;0.80;;;0.60;;
1625;SDS011;806;48.770;9.156;2023-07-02T00:26:49;0.80;;;0.60;;
1625;SDS011;806;48.770;9.156;2023-07-02T00:29:16;0.80;;;0.50;;
1625;SDS011;806;48.770;9.156;2023-07-02T00:31:43;0.90;;;0.60;;
1625;SDS011;806;48.770;9.156;2023-07-02T00:34:10;0.90;;;0.60;;
1625;SDS011;806;48.770;9.156;2023-07-02T00:36:37;0.80;;;0.60;;
1625;SDS011;806;48.770;9.156;2023-07-02T00:39:04;0.80;;;0.60;;
1625;SDS011;806;48.770;9.156;2023-07-02T00:41:31;1.30;;;0.70;;
1625;SDS011;806;48.770;9.156;2023-07-02T00:43:59;0.90;;;0.60;;
1625;SDS011;806;48.770;9.156;2023-07-02T00:46:26;1.10;;;0.60;;
1625;SDS011;806;48.770;9.156;2023-07-02T00:48:54;1.20;;;0.50;;
1625;SDS011;806;48.770;9.156;2023-07-02T00:51:21;1.00;;;0.50;;
1625;SDS011;806;48.770;9.156;2023-07-02T00:53:49;0.82;;;0.60;;
1625;SDS011;806;48.770;9.156;2023-07-02T00:56:19;0.80;;;0.60;;
1625;SDS011;806;48.770;9.156;2023-07-02T00:58:47;1.00;;;0.50;;
1625;SDS011;806;48.770;9.156;2023-07-02T01:01:17;1.30;;;0.60;;
1625;SDS011;806;48.770;9.156;2023-07-02T01:03:51;0.77;;;0.50;;
1625;SDS011;806;48.770;9.156;2023-07-02T01:06:22;1.08;;;0.60;;
1625;SDS011;806;48.770;9.156;2023-07-02T01:08:51;0.70;;;0.50;;
1625;SDS011;806;48.770;9.156;2023-07-02T01:11:20;1.00;;;0.50;;
1625;SDS011;806;48.770;9.156;2023-07-02T01:13:50;1.10;;;0.50;;
1625;SDS011;806;48.770;9.156;2023-07-02T01:16:20;0.80;;;0.50;;
1625;SDS011;806;48.770;9.156;2023-07-02T01:18:49;1.20;;;0.60;;
1625;SDS011;806;48.770;9.156;2023-07-02T01:21:20;1.00;;;0.60;;
1625;SDS011;806;48.770;9.156;2023-07-02T01:23:50;1.15;;;0.50;;
1625;SDS011;806;48.770;9.156;2023-07-02T01:26:17;1.00;;;0.50;;
1625;SDS011;806;48.770;9.156;2023-07-02T01:28:44;0.70;;;0.50;;
1625;SDS011;806;48.770;9.156;2023-07-02T01:31:11;1.00;;;0.50;;
1625;SDS011;806;48.770;9.156;2023-07-02T01:33:38;1.30;;;0.60;;
1625;SDS011;806;48.770;9.156;2023-07-02T01:36:07;1.17;;;0.60;;
1625;SDS011;806;48.770;9.156;2023-07-02T01:38:35;0.90;;;0.90;;
1625;SDS011;806;48.770;9.156;2023-07-02T01:41:02;0.80;;;0.50;;
1625;SDS011;806;48.770;9.156;2023-07-02T01:43:29;0.93;;;0.50;;
1625;SDS011;806;48.770;9.156;2023-07-02T01:45:56;0.80;;;0.60;;
1625;SDS011;806;48.770;9.156;2023-07-02T01:48:24;0.90;;;0.50;;
1625;SDS011;806;48.770;9.156;2023-07-02T01:50:52;0.80;;;0.50;;
1625;SDS011;806;48.770;9.156;2023-07-02T01:53:19;0.70;;;0.50;;
1625;SDS011;806;48.770;9.156;2023-07-02T01:55:47;0.98;;;0.60;;
1625;SDS011;806;48.770;9.156;2023-07-02T01:58:14;1.00;;;0.60;;
1625;SDS011;806;48.770;9.156;2023-07-02T02:00:41;1.10;;;0.60;;
1625;SDS011;806;48.770;9.156;2023-07-02T02:03:08;0.90;;;0.60;;
1625;SDS011;806;48.770;9.156;2023-07-02T02:05:35;0.90;;;0.60;;
1625;SDS011;806;48.770;9.156;2023-07-02T02:08:02;1.20;;;0.50;;
1625;SDS011;806;48.770;9.156;2023-07-02T02:10:30;0.80;;;0.60;;
1625;SDS011;806;48.770;9.156;2023-07-02T02:12:58;0.98;;;0.60;;
1625;SDS011;806;48.770;9.156;2023-07-02T02:15:25;1.30;;;0.60;;
1625;SDS011;806;48.770;9.156;2023-07-02T02:17:52;0.80;;;0.50;;
1625;SDS011;806;48.770;9.156;2023-07-02T02:20:19;0.80;;;0.50;;
1625;SDS011;806;48.770;9.156;2023-07-02T02:22:46;0.80;;;0.50;;
1625;SDS011;806;48.770;9.156;2023-07-02T02:25:13;0.80;;;0.60;;
1625;SDS011;806;48.770;9.156;2023-07-02T02:27:40;0.80;;;0.50;;
1625;SDS011;806;48.770;9.156;2023-07-02T02:30:13;0.75;;;0.50;;
1625;SDS011;806;48.770;9.156;2023-07-02T02:32:40;0.70;;;0.50;;
1625;SDS011;806;48.770;9.156;2023-07-02T02:35:07;1.02;;;0.60;;
1625;SDS011;806;48.770;9.156;2023-07-02T02:37:35;1.00;;;0.50;;
1625;SDS011;806;48.770;9.156;2023-07-02T02:40:03;0.90;;;0.50;;
1625;SDS011;806;48.770;9.156;2023-07-02T02:42:31;0.70;;;0.50;;
1625;SDS011;806;48.770;9.156;2023-07-02T02:44:58;1.70;;;0.60;;
1625;SDS011;806;48.770;9.156;2023-07-02T02:47:27;1.10;;;0.60;;
1625;SDS011;806;48.770;9.156;2023-07-02T02:49:54;0.90;;;0.50;;
1625;SDS011;806;48.770;9.156;2023-07-02T02:52:21;1.23;;;0.50;;
1625;SDS011;806;48.770;9.156;2023-07-02T02:54:49;0.80;;;0.60;;
1625;SDS011;806;48.770;9.156;2023-07-02T02:57:17;1.40;;;0.60;;
1625;SDS011;806;48.770;9.156;2023-07-02T02:59:44;0.85;;;0.57;;
1625;SDS011;806;48.770;9.156;2023-07-02T03:02:12;0.80;;;0.50;;
1625;SDS011;806;48.770;9.156;2023-07-02T03:04:40;0.82;;;0.57;;
1625;SDS011;806;48.770;9.156;2023-07-02T03:07:09;0.90;;;0.57;;
1625;SDS011;806;48.770;9.156;2023-07-02T03:09:36;0.80;;;0.60;;
1625;SDS011;806;48.770;9.156;2023-07-02T03:12:03;0.70;;;0.50;;
1625;SDS011;806;48.770;9.156;2023-07-02T03:14:30;0.68;;;0.50;;
1625;SDS011;806;48.770;9.156;2023-07-02T03:16:57;1.20;;;0.60;;
1625;SDS011;806;48.770;9.156;2023-07-02T03:19:24;1.05;;;0.50;;
1625;SDS011;806;48.770;9.156;2023-07-02T03:21:53;0.70;;;0.50;;
1625;SDS011;806;48.770;9.156;2023-07-02T03:24:20;1.00;;;0.60;;
1625;SDS011;806;48.770;9.156;2023-07-02T03:26:48;1.00;;;0.80;;
1625;SDS011;806;48.770;9.156;2023-07-02T03:29:15;1.00;;;0.50;;
1625;SDS011;806;48.770;9.156;2023-07-02T03:31:44;1.30;;;0.57;;
1625;SDS011;806;48.770;9.156;2023-07-02T03:34:11;1.10;;;0.60;;
1625;SDS011;806;48.770;9.156;2023-07-02T03:36:38;0.80;;;0.50;;
1625;SDS011;806;48.770;9.156;2023-07-02T03:39:07;1.58;;;0.70;;
1625;SDS011;806;48.770;9.156;2023-07-02T03:41:34;1.58;;;0.60;;
1625;SDS011;806;48.770;9.156;2023-07-02T03:44:01;1.17;;;0.60;;
1625;SDS011;806;48.770;9.156;2023-07-02T03:46:28;0.80;;;0.55;;
1625;SDS011;806;48.770;9.156;2023-07-02T03:48:56;0.93;;;0.70;;
1625;SDS011;806;48.770;9.156;2023-07-02T03:51:23;0.90;;;0.60;;
1625;SDS011;806;48.770;9.156;2023-07-02T03:53:50;1.35;;;0.60;;
1625;SDS011;806;48.770;9.156;2023-07-02T03:56:18;0.80;;;0.50;;
1625;SDS011;806;48.770;9.156;2023-07-02T03:58:45;1.10;;;0.60;;
1625;SDS011;806;48.770;9.156;2023-07-02T04:01:12;1.00;;;0.60;;
1625;SDS011;806;48.770;9.156;2023-07-02T04:03:42;1.08;;;0.70;;
1625;SDS011;806;48.770;9.156;2023-07-02T04:06:14;2.30;;;0.63;;
1625;SDS011;806;48.770;9.156;2023-07-02T04:08:41;1.08;;;0.60;;
1625;SDS011;806;48.770;9.156;2023-07-02T04:11:08;1.17;;;0.60;;
1625;SDS011;806;48.770;9.156;2023-07-02T04:13:37;1.60;;;0.70;;
1625;SDS011;806;48.770;9.156;2023-07-02T04:16:04;1.20;;;0.70;;
1625;SDS011;806;48.770;9.156;2023-07-02T04:18:32;1.60;;;0.70;;
1625;SDS011;806;48.770;9.156;2023-07-02T04:21:00;2.10;;;0.70;;
1625;SDS011;806;48.770;9.156;2023-07-02T04:23:28;2.35;;;0.80;;
1625;SDS011;806;48.770;9.156;2023-07-02T04:25:55;2.58;;;0.80;;
1625;SDS011;806;48.770;9.156;2023-07-02T04:28:22;2.80;;;0.90;;
1625;SDS011;806;48.770;9.156;2023-07-02T04:30:50;1.30;;;0.60;;
1625;SDS011;806;48.770;9.156;2023-07-02T04:33:18;1.50;;;0.80;;
1625;SDS011;806;48.770;9.156;2023-07-02T04:35:45;1.00;;;0.60;;
1625;SDS011;806;48.770;9.156;2023-07-02T04:38:12;1.50;;;0.70;;
1625;SDS011;806;48.770;9.156;2023-07-02T04:40:39;1.80;;;0.80;;
1625;SDS011;806;48.770;9.156;2023-07-02T04:43:09;2.10;;;0.80;;
1625;SDS011;806;48.770;9.156;2023-07-02T04:45:37;1.60;;;0.70;;
1625;SDS011;806;48.770;9.156;2023-07-02T04:48:06;1.30;;;0.70;;
1625;SDS011;806;48.770;9.156;2023-07-02T04:50:33;2.60;;;0.70;;
1625;SDS011;806;48.770;9.156;2023-07-02T04:53:00;1.00;;;0.60;;
1625;SDS011;806;48.770;9.156;2023-07-02T04:55:27;1.40;;;0.65;;
1625;SDS011;806;48.770;9.156;2023-07-02T04:57:54;1.00;;;0.70;;
1625;SDS011;806;48.770;9.156;2023-07-02T05:00:21;1.00;;;0.60;;
1625;SDS011;806;48.770;9.156;2023-07-02T05:02:48;2.10;;;0.70;;
1625;SDS011;806;48.770;9.156;2023-07-02T05:05:17;1.38;;;0.60;;
1625;SDS011;806;48.770;9.156;2023-07-02T05:07:44;1.17;;;0.60;;
1625;SDS011;806;48.770;9.156;2023-07-02T05:10:11;1.30;;;0.70;;
1625;SDS011;806;48.770;9.156;2023-07-02T05:12:38;1.70;;;0.70;;
1625;SDS011;806;48.770;9.156;2023-07-02T05:15:05;2.10;;;0.70;;
1625;SDS011;806;48.770;9.156;2023-07-02T05:17:33;2.00;;;0.57;;
1625;SDS011;806;48.770;9.156;2023-07-02T05:20:01;1.13;;;0.70;;
1625;SDS011;806;48.770;9.156;2023-07-02T05:22:30;1.10;;;0.60;;
1625;SDS011;806;48.770;9.156;2023-07-02T05:24:57;1.20;;;0.60;;
1625;SDS011;806;48.770;9.156;2023-07-02T05:27:24;1.00;;;0.60;;
1625;SDS011;806;48.770;9.156;2023-07-02T05:29:51;1.33;;;0.70;;
1625;SDS011;806;48.770;9.156;2023-07-02T05:32:18;2.17;;;0.63;;
1625;SDS011;806;48.770;9.156;2023-07-02T05:34:45;1.80;;;0.90;;
1625;SDS011;806;48.770;9.156;2023-07-02T05:37:13;1.47;;;0.80;;
1625;SDS011;806;48.770;9.156;2023-07-02T05:39:41;1.90;;;0.70;;
1625;SDS011;806;48.770;9.156;2023-07-02T05:42:08;1.10;;;0.70;;
1625;SDS011;806;48.770;9.156;2023-07-02T05:44:35;1.47;;;0.80;;
1625;SDS011;806;48.770;9.156;2023-07-02T05:47:02;1.20;;;0.60;;
1625;SDS011;806;48.770;9.156;2023-07-02T05:49:29;1.97;;;0.70;;
1625;SDS011;806;48.770;9.156;2023-07-02T05:51:56;2.45;;;0.80;;
1625;SDS011;806;48.770;9.156;2023-07-02T05:54:23;1.10;;;0.70;;
1625;SDS011;806;48.770;9.156;2023-07-02T05:56:52;1.33;;;0.77;;
1625;SDS011;806;48.770;9.156;2023-07-02T05:59:19;2.10;;;0.70;;
1625;SDS011;806;48.770;9.156;2023-07-02T06:01:46;2.20;;;0.80;;
1625;SDS011;806;48.770;9.156;2023-07-02T06:04:13;2.00;;;0.90;;
1625;SDS011;806;48.770;9.156;2023-07-02T06:06:39;1.33;;;0.80;;
1625;SDS011;806;48.770;9.156;2023-07-02T06:09:07;1.83;;;0.80;;
1625;SDS011;806;48.770;9.156;2023-07-02T06:11:34;3.50;;;1.00;;
1625;SDS011;806;48.770;9.156;2023-07-02T06:14:02;1.70;;;0.90;;
1625;SDS011;806;48.770;9.156;2023-07-02T06:16:29;2.10;;;1.00;;
1625;SDS011;806;48.770;9.156;2023-07-02T06:18:56;4.60;;;1.00;;
1625;SDS011;806;48.770;9.156;2023-07-02T06:21:23;1.60;;;0.90;;
1625;SDS011;806;48.770;9.156;2023-07-02T06:23:54;1.98;;;0.90;;
1625;SDS011;806;48.770;9.156;2023-07-02T06:26:22;1.92;;;1.00;;
1625;SDS011;806;48.770;9.156;2023-07-02T06:28:49;2.63;;;1.00;;
1625;SDS011;806;48.770;9.156;2023-07-02T06:31:18;2.90;;;1.00;;
1625;SDS011;806;48.770;9.156;2023-07-02T06:33:45;1.83;;;1.10;;
1625;SDS011;806;48.770;9.156;2023-07-02T06:36:12;3.88;;;1.40;;
1625;SDS011;806;48.770;9.156;2023-07-02T06:38:40;3.88;;;1.30;;
1625;SDS011;806;48.770;9.156;2023-07-02T06:41:07;4.03;;;1.30;;
1625;SDS011;806;48.770;9.156;2023-07-02T06:43:34;3.47;;;1.42;;
1625;SDS011;806;48.770;9.156;2023-07-02T06:46:02;4.80;;;1.50;;
1625;SDS011;806;48.770;9.156;2023-07-02T06:48:30;2.83;;;1.40;;
1625;SDS011;806;48.770;9.156;2023-07-02T06:50:57;3.00;;;1.40;;
1625;SDS011;806;48.770;9.156;2023-07-02T06:53:24;3.10;;;1.40;;
1625;SDS011;806;48.770;9.156;2023-07-02T06:55:51;2.80;;;1.30;;
1625;SDS011;806;48.770;9.156;2023-07-02T06:58:18;5.30;;;1.42;;
1625;SDS011;806;48.770;9.156;2023-07-02T07:00:46;2.92;;;1.30;;
1625;SDS011;806;48.770;9.156;2023-07-02T07:03:13;2.97;;;1.40;;
1625;SDS011;806;48.770;9.156;2023-07-02T07:05:41;3.50;;;1.60;;
1625;SDS011;806;48.770;9.156;2023-07-02T07:08:08;4.80;;;1.90;;
1625;SDS011;806;48.770;9.156;2023-07-02T07:10:35;2.97;;;1.30;;
1625;SDS011;806;48.770;9.156;2023-07-02T07:13:02;3.95;;;1.95;;
1625;SDS011;806;48.770;9.156;2023-07-02T07:15:29;2.83;;;1.20;;
1625;SDS011;806;48.770;9.156;2023-07-02T07:17:59;2.83;;;1.48;;
1625;SDS011;806;48.770;9.156;2023-07-02T07:20:26;5.00;;;1.80;;
1625;SDS011;806;48.770;9.156;2023-07-02T07:22:55;4.72;;;1.92;;
1625;SDS011;806;48.770;9.156;2023-07-02T07:25:22;5.60;;;2.60;;
1625;SDS011;806;48.770;9.156;2023-07-02T07:27:49;4.15;;;1.90;;
1625;SDS011;806;48.770;9.156;2023-07-02T07:30:17;4.32;;;1.90;;
1625;SDS011;806;48.770;9.156;2023-07-02T07:32:47;4.20;;;2.00;;
1625;SDS011;806;48.770;9.156;2023-07-02T07:35:15;5.22;;;2.70;;
1625;SDS011;806;48.770;9.156;2023-07-02T07:37:42;4.90;;;2.63;;
1625;SDS011;806;48.770;9.156;2023-07-02T07:40:11;5.10;;;2.45;;
1625;SDS011;806;48.770;9.156;2023-07-02T07:42:39;6.30;;;2.20;;
1625;SDS011;806;48.770;9.156;2023-07-02T07:45:07;6.17;;;2.70;;
1625;SDS011;806;48.770;9.156;2023-07-02T07:47:36;5.68;;;2.30;;
1625;SDS011;806;48.770;9.156;2023-07-02T07:50:03;6.30;;;2.50;;
1625;SDS011;806;48.770;9.156;2023-07-02T07:52:35;5.53;;;2.53;;
1625;SDS011;806;48.770;9.156;2023-07-02T07:55:03;6.40;;;2.38;;
1625;SDS011;806;48.770;9.156;2023-07-02T07:57:31;6.05;;;3.50;;
1625;SDS011;806;48.770;9.156;2023-07-02T07:59:58;5.65;;;2.35;;
1625;SDS011;806;48.770;9.156;2023-07-02T08:02:28;4.40;;;2.70;;
1625;SDS011;806;48.770;9.156;2023-07-02T08:04:55;5.03;;;2.92;;
1625;SDS011;806;48.770;9.156;2023-07-02T08:07:22;7.43;;;2.67;;
1625;SDS011;806;48.770;9.156;2023-07-02T08:09:49;6.25;;;3.08;;
1625;SDS011;806;48.770;9.156;2023-07-02T08:12:16;8.25;;;3.03;;
1625;SDS011;806;48.770;9.156;2023-07-02T08:14:44;5.50;;;2.53;;
1625;SDS011;806;48.770;9.156;2023-07-02T08:17:11;4.18;;;2.60;;
1625;SDS011;806;48.770;9.156;2023-07-02T08:19:38;6.82;;;3.20;;
1625;SDS011;806;48.770;9.156;2023-07-02T08:22:05;6.65;;;2.55;;
1625;SDS011;806;48.770;9.156;2023-07-02T08:24:32;5.67;;;2.77;;
1625;SDS011;806;48.770;9.156;2023-07-02T08:26:59;5.07;;;2.67;;
1625;SDS011;806;48.770;9.156;2023-07-02T08:29:27;6.07;;;2.20;;
1625;SDS011;806;48.770;9.156;2023-07-02T08:31:56;6.35;;;2.85;;
1625;SDS011;806;48.770;9.156;2023-07-02T08:34:25;4.95;;;2.70;;
1625;SDS011;806;48.770;9.156;2023-07-02T08:36:53;5.78;;;2.60;;
1625;SDS011;806;48.770;9.156;2023-07-02T08:39:20;6.22;;;2.92;;
1625;SDS011;806;48.770;9.156;2023-07-02T08:41:47;6.47;;;3.00;;
1625;SDS011;806;48.770;9.156;2023-07-02T08:44:16;5.55;;;2.60;;
1625;SDS011;806;48.770;9.156;2023-07-02T08:46:47;5.40;;;2.55;;
1625;SDS011;806;48.770;9.156;2023-07-02T08:49:17;4.95;;;3.13;;
1625;SDS011;806;48.770;9.156;2023-07-02T08:51:44;6.72;;;3.38;;
1625;SDS011;806;48.770;9.156;2023-07-02T08:54:12;5.22;;;2.83;;
1625;SDS011;806;48.770;9.156;2023-07-02T08:56:39;4.85;;;2.00;;
1625;SDS011;806;48.770;9.156;2023-07-02T08:59:06;5.07;;;2.50;;
1625;SDS011;806;48.770;9.156;2023-07-02T09:01:43;5.18;;;2.40;;
1625;SDS011;806;48.770;9.156;2023-07-02T09:04:14;5.57;;;2.27;;
1625;SDS011;806;48.770;9.156;2023-07-02T09:06:43;4.45;;;1.80;;
1625;SDS011;806;48.770;9.156;2023-07-02T09:09:11;3.92;;;2.20;;
1625;SDS011;806;48.770;9.156;2023-07-02T09:11:46;4.13;;;2.15;;
1625;SDS011;806;48.770;9.156;2023-07-02T09:14:23;4.45;;;1.73;;
1625;SDS011;806;48.770;9.156;2023-07-02T09:17:00;5.00;;;2.15;;
1625;SDS011;806;48.770;9.156;2023-07-02T09:19:33;3.83;;;1.95;;
1625;SDS011;806;48.770;9.156;2023-07-02T09:22:00;3.05;;;1.70;;
1625;SDS011;806;48.770;9.156;2023-07-02T09:24:28;4.47;;;1.93;;
1625;SDS011;806;48.770;9.156;2023-07-02T09:26:56;4.30;;;2.35;;
1625;SDS011;806;48.770;9.156;2023-07-02T09:29:26;4.97;;;2.60;;
1625;SDS011;806;48.770;9.156;2023-07-02T09:31:54;6.25;;;2.60;;
1625;SDS011;806;48.770;9.156;2023-07-02T09:34:26;4.57;;;2.00;;
1625;SDS011;806;48.770;9.156;2023-07-02T09:36:56;3.55;;;1.90;;
1625;SDS011;806;48.770;9.156;2023-07-02T09:39:27;5.40;;;2.27;;
1625;SDS011;806;48.770;9.156;2023-07-02T09:41:55;4.75;;;2.20;;
1625;SDS011;806;48.770;9.156;2023-07-02T09:44:25;4.53;;;2.10;;
1625;SDS011;806;48.770;9.156;2023-07-02T09:46:56;5.20;;;2.47;;
1625;SDS011;806;48.770;9.156;2023-07-02T09:49:29;4.38;;;2.10;;
1625;SDS011;806;48.770;9.156;2023-07-02T09:52:00;4.03;;;1.90;;
1625;SDS011;806;48.770;9.156;2023-07-02T09:54:28;4.18;;;2.13;;
1625;SDS011;806;48.770;9.156;2023-07-02T09:56:55;5.40;;;2.20;;
1625;SDS011;806;48.770;9.156;2023-07-02T09:59:22;7.60;;;2.20;;
1625;SDS011;806;48.770;9.156;2023-07-02T10:01:50;7.93;;;2.60;;
1625;SDS011;806;48.770;9.156;2023-07-02T10:04:18;4.90;;;1.98;;
1625;SDS011;806;48.770;9.156;2023-07-02T10:06:46;3.53;;;2.00;;
1625;SDS011;806;48.770;9.156;2023-07-02T10:09:17;4.40;;;2.00;;
1625;SDS011;806;48.770;9.156;2023-07-02T10:11:44;6.22;;;2.50;;
1625;SDS011;806;48.770;9.156;2023-07-02T10:14:11;4.03;;;2.22;;
1625;SDS011;806;48.770;9.156;2023-07-02T10:16:48;5.45;;;2.38;;
1625;SDS011;806;48.770;9.156;2023-07-02T10:19:16;6.30;;;2.22;;
1625;SDS011;806;48.770;9.156;2023-07-02T10:21:43;5.30;;;3.20;;
1625;SDS011;806;48.770;9.156;2023-07-02T10:24:12;5.05;;;2.80;;
1625;SDS011;806;48.770;9.156;2023-07-02T10:26:54;6.55;;;2.60;;
1625;SDS011;806;48.770;9.156;2023-07-02T10:29:22;7.15;;;2.90;;
1625;SDS011;806;48.770;9.156;2023-07-02T10:31:50;7.25;;;3.08;;
1625;SDS011;806;48.770;9.156;2023-07-02T10:34:27;6.90;;;2.72;;
1625;SDS011;806;48.770;9.156;2023-07-02T10:36:55;5.25;;;2.47;;
1625;SDS011;806;48.770;9.156;2023-07-02T10:39:23;5.80;;;2.30;;
1625;SDS011;806;48.770;9.156;2023-07-02T10:41:52;4.53;;;2.50;;
1625;SDS011;806;48.770;9.156;2023-07-02T10:44:29;6.10;;;3.28;;
1625;SDS011;806;48.770;9.156;2023-07-02T10:46:57;6.78;;;3.00;;
1625;SDS011;806;48.770;9.156;2023-07-02T10:49:29;6.32;;;3.63;;
1625;SDS011;806;48.770;9.156;2023-07-02T10:51:58;5.60;;;3.30;;
1625;SDS011;806;48.770;9.156;2023-07-02T10:54:25;6.05;;;3.38;;
1625;SDS011;806;48.770;9.156;2023-07-02T10:56:57;6.30;;;3.35;;
1625;SDS011;806;48.770;9.156;2023-07-02T10:59:24;4.97;;;2.90;;
1625;SDS011;806;48.770;9.156;2023-07-02T11:01:51;5.80;;;2.80;;
1625;SDS011;806;48.770;9.156;2023-07-02T11:04:20;5.20;;;3.00;;
1625;SDS011;806;48.770;9.156;2023-07-02T11:06:48;5.40;;;2.97;;
1625;SDS011;806;48.770;9.156;2023-07-02T11:09:16;7.37;;;2.50;;
1625;SDS011;806;48.770;9.156;2023-07-02T11:11:52;5.05;;;2.40;;
1625;SDS011;806;48.770;9.156;2023-07-02T11:14:28;4.18;;;2.58;;
1625;SDS011;806;48.770;9.156;2023-07-02T11:16:56;4.97;;;3.70;;
1625;SDS011;806;48.770;9.156;2023-07-02T11:19:25;4.25;;;3.40;;
1625;SDS011;806;48.770;9.156;2023-07-02T11:21:54;6.10;;;2.70;;
1625;SDS011;806;48.770;9.156;2023-07-02T11:24:26;5.78;;;3.20;;
1625;SDS011;806;48.770;9.156;2023-07-02T11:26:54;4.50;;;2.60;;
1625;SDS011;806;48.770;9.156;2023-07-02T11:29:22;6.97;;;3.60;;
1625;SDS011;806;48.770;9.156;2023-07-02T11:31:51;5.10;;;2.50;;
1625;SDS011;806;48.770;9.156;2023-07-02T11:34:18;3.60;;;2.60;;
1625;SDS011;806;48.770;9.156;2023-07-02T11:36:47;5.55;;;3.70;;
1625;SDS011;806;48.770;9.156;2023-07-02T11:39:15;4.50;;;2.60;;
1625;SDS011;806;48.770;9.156;2023-07-02T11:41:43;6.80;;;3.20;;
1625;SDS011;806;48.770;9.156;2023-07-02T11:44:11;5.80;;;3.25;;
1625;SDS011;806;48.770;9.156;2023-07-02T11:46:38;6.68;;;2.90;;
1625;SDS011;806;48.770;9.156;2023-07-02T11:49:06;5.75;;;2.85;;
1625;SDS011;806;48.770;9.156;2023-07-02T11:51:34;6.03;;;2.97;;
1625;SDS011;806;48.770;9.156;2023-07-02T11:54:02;5.65;;;3.08;;
1625;SDS011;806;48.770;9.156;2023-07-02T11:56:29;5.90;;;2.80;;
1625;SDS011;806;48.770;9.156;2023-07-02T11:58:56;5.18;;;2.97;;
1625;SDS011;806;48.770;9.156;2023-07-02T12:01:24;6.85;;;3.20;;
1625;SDS011;806;48.770;9.156;2023-07-02T12:03:51;4.20;;;3.08;;
1625;SDS011;806;48.770;9.156;2023-07-02T12:06:19;4.80;;;2.43;;
1625;SDS011;806;48.770;9.156;2023-07-02T12:08:47;4.30;;;2.65;;
1625;SDS011;806;48.770;9.156;2023-07-02T12:11:14;4.50;;;2.42;;
1625;SDS011;806;48.770;9.156;2023-07-02T12:13:41;4.47;;;2.40;;
1625;SDS011;806;48.770;9.156;2023-07-02T12:16:08;4.22;;;2.60;;
1625;SDS011;806;48.770;9.156;2023-07-02T12:18:35;5.68;;;3.22;;
1625;SDS011;806;48.770;9.156;2023-07-02T12:21:02;4.97;;;2.60;;
1625;SDS011;806;48.770;9.156;2023-07-02T12:23:30;4.60;;;2.60;;
1625;SDS011;806;48.770;9.156;2023-07-02T12:25:57;4.20;;;2.70;;
1625;SDS011;806;48.770;9.156;2023-07-02T12:28:24;6.28;;;3.00;;
1625;SDS011;806;48.770;9.156;2023-07-02T12:30:51;3.88;;;2.50;;
1625;SDS011;806;48.770;9.156;2023-07-02T12:33:18;5.05;;;2.63;;
1625;SDS011;806;48.770;9.156;2023-07-02T12:35:45;4.70;;;3.20;;
1625;SDS011;806;48.770;9.156;2023-07-02T12:38:12;5.88;;;3.70;;
1625;SDS011;806;48.770;9.156;2023-07-02T12:40:41;5.10;;;2.88;;
1625;SDS011;806;48.770;9.156;2023-07-02T12:43:08;4.45;;;2.80;;
1625;SDS011;806;48.770;9.156;2023-07-02T12:45:35;6.20;;;3.10;;
1625;SDS011;806;48.770;9.156;2023-07-02T12:48:02;4.80;;;2.50;;
1625;SDS011;806;48.770;9.156;2023-07-02T12:50:29;5.30;;;2.47;;
1625;SDS011;806;48.770;9.156;2023-07-02T12:52:56;3.50;;;2.45;;
1625;SDS011;806;48.770;9.156;2023-07-02T12:55:23;4.63;;;2.95;;
1625;SDS011;806;48.770;9.156;2023-07-02T12:57:51;5.20;;;2.77;;
1625;SDS011;806;48.770;9.156;2023-07-02T13:00:18;4.68;;;2.95;;
1625;SDS011;806;48.770;9.156;2023-07-02T13:02:46;6.10;;;3.38;;
1625;SDS011;806;48.770;9.156;2023-07-02T13:05:13;6.03;;;3.10;;
1625;SDS011;806;48.770;9.156;2023-07-02T13:07:40;5.40;;;3.40;;
1625;SDS011;806;48.770;9.156;2023-07-02T13:10:07;5.60;;;3.00;;
1625;SDS011;806;48.770;9.156;2023-07-02T13:12:34;5.25;;;3.17;;
1625;SDS011;806;48.770;9.156;2023-07-02T13:15:03;4.53;;;2.63;;
1625;SDS011;806;48.770;9.156;2023-07-02T13:17:30;5.82;;;2.60;;
1625;SDS011;806;48.770;9.156;2023-07-02T13:19:57;5.88;;;3.08;;
1625;SDS011;806;48.770;9.156;2023-07-02T13:22:24;5.05;;;3.10;;
1625;SDS011;806;48.770;9.156;2023-07-02T13:24:51;5.72;;;3.40;;
1625;SDS011;806;48.770;9.156;2023-07-02T13:27:18;4.80;;;2.85;;
1625;SDS011;806;48.770;9.156;2023-07-02T13:29:45;5.25;;;2.75;;
1625;SDS011;806;48.770;9.156;2023-07-02T13:32:14;5.07;;;2.60;;
1625;SDS011;806;48.770;9.156;2023-07-02T13:34:41;4.43;;;2.70;;
1625;SDS011;806;48.770;9.156;2023-07-02T13:37:08;5.90;;;2.80;;
1625;SDS011;806;48.770;9.156;2023-07-02T13:39:35;5.40;;;3.20;;
1625;SDS011;806;48.770;9.156;2023-07-02T13:42:02;4.50;;;2.83;;
1625;SDS011;806;48.770;9.156;2023-07-02T13:44:30;5.40;;;3.10;;
1625;SDS011;806;48.770;9.156;2023-07-02T13:46:57;3.88;;;3.03;;
1625;SDS011;806;48.770;9.156;2023-07-02T13:49:26;4.18;;;2.50;;
1625;SDS011;806;48.770;9.156;2023-07-02T13:51:53;5.18;;;2.90;;
1625;SDS011;806;48.770;9.156;2023-07-02T13:54:20;4.93;;;2.70;;
1625;SDS011;806;48.770;9.156;2023-07-02T13:56:47;5.18;;;2.85;;
1625;SDS011;806;48.770;9.156;2023-07-02T13:59:15;4.75;;;3.22;;
1625;SDS011;806;48.770;9.156;2023-07-02T14:01:43;4.97;;;2.40;;
1625;SDS011;806;48.770;9.156;2023-07-02T14:04:10;5.65;;;3.50;;
1625;SDS011;806;48.770;9.156;2023-07-02T14:06:38;6.00;;;3.40;;
1625;SDS011;806;48.770;9.156;2023-07-02T14:09:05;6.40;;;3.58;;
1625;SDS011;806;48.770;9.156;2023-07-02T14:11:33;3.77;;;2.67;;
1625;SDS011;806;48.770;9.156;2023-07-02T14:14:01;5.90;;;2.80;;
1625;SDS011;806;48.770;9.156;2023-07-02T14:16:30;5.20;;;2.80;;
1625;SDS011;806;48.770;9.156;2023-07-02T14:18:57;6.65;;;2.78;;
1625;SDS011;806;48.770;9.156;2023-07-02T14:21:24;3.83;;;2.30;;
1625;SDS011;806;48.770;9.156;2023-07-02T14:23:51;5.85;;;3.00;;
1625;SDS011;806;48.770;9.156;2023-07-02T14:26:18;4.50;;;2.83;;
1625;SDS011;806;48.770;9.156;2023-07-02T14:28:45;4.88;;;3.00;;
1625;SDS011;806;48.770;9.156;2023-07-02T14:31:12;4.50;;;2.70;;
1625;SDS011;806;48.770;9.156;2023-07-02T14:33:40;5.80;;;2.70;;
1625;SDS011;806;48.770;9.156;2023-07-02T14:36:07;4.93;;;2.83;;
1625;SDS011;806;48.770;9.156;2023-07-02T14:38:34;5.65;;;2.70;;
1625;SDS011;806;48.770;9.156;2023-07-02T14:41:01;5.75;;;2.90;;
1625;SDS011;806;48.770;9.156;2023-07-02T14:43:29;5.60;;;2.70;;
1625;SDS011;806;48.770;9.156;2023-07-02T14:45:57;5.43;;;3.20;;
1625;SDS011;806;48.770;9.156;2023-07-02T14:48:26;5.70;;;2.90;;
1625;SDS011;806;48.770;9.156;2023-07-02T14:50:56;4.95;;;2.35;;
1625;SDS011;806;48.770;9.156;2023-07-02T14:53:24;6.00;;;3.30;;
1625;SDS011;806;48.770;9.156;2023-07-02T14:55:53;4.50;;;2.40;;
1625;SDS011;806;48.770;9.156;2023-07-02T14:58:21;8.20;;;3.90;;
1625;SDS011;806;48.770;9.156;2023-07-02T15:00:49;5.78;;;3.30;;
1625;SDS011;806;48.770;9.156;2023-07-02T15:03:18;6.13;;;3.45;;
1625;SDS011;806;48.770;9.156;2023-07-02T15:05:47;6.15;;;3.35;;
1625;SDS011;806;48.770;9.156;2023-07-02T15:08:17;5.20;;;3.33;;
1625;SDS011;806;48.770;9.156;2023-07-02T15:10:46;5.82;;;3.63;;
1625;SDS011;806;48.770;9.156;2023-07-02T15:13:15;5.32;;;2.60;;
1625;SDS011;806;48.770;9.156;2023-07-02T15:15:44;4.60;;;2.90;;
1625;SDS011;806;48.770;9.156;2023-07-02T15:18:12;4.15;;;2.40;;
1625;SDS011;806;48.770;9.156;2023-07-02T15:20:39;5.80;;;3.50;;
1625;SDS011;806;48.770;9.156;2023-07-02T15:23:06;6.40;;;3.28;;
1625;SDS011;806;48.770;9.156;2023-07-02T15:25:35;6.53;;;3.63;;
1625;SDS011;806;48.770;9.156;2023-07-02T15:28:02;6.70;;;3.63;;
1625;SDS011;806;48.770;9.156;2023-07-02T15:30:29;4.90;;;3.03;;
1625;SDS011;806;48.770;9.156;2023-07-02T15:32:56;6.65;;;3.55;;
1625;SDS011;806;48.770;9.156;2023-07-02T15:35:23;5.60;;;3.03;;